createdAt,value
2023-02-18T00:01:11.745Z,101134.75
2023-02-18T00:03:39.721Z,101127.91
2023-02-18T00:06:12.936Z,101126.78
2023-02-18T00:08:41.784Z,101124.88
2023-02-18T00:11:08.672Z,101117.34
2023-02-18T00:13:36.392Z,101116.53
2023-02-18T00:16:05.243Z,101107.19
2023-02-18T00:18:32.469Z,101118.47
2023-02-18T00:20:59.454Z,101105.03
2023-02-18T00:23:26.737Z,101100.06
2023-02-18T00:26:07.695Z,101101.44
2023-02-18T00:28:35.386Z,101096.22
2023-02-18T00:31:17.881Z,101094.00
2023-02-18T00:33:45.277Z,101091.53
2023-02-18T00:36:15.245Z,101087.38
2023-02-18T00:38:50.982Z,101082.13
2023-02-18T00:41:19.350Z,101076.91
2023-02-18T00:43:46.772Z,101068.66
2023-02-18T00:46:14.290Z,101075.25
2023-02-18T00:48:41.509Z,101069.31
2023-02-18T00:51:10.327Z,101063.47
2023-02-18T00:53:37.485Z,101059.66
2023-02-18T00:56:05.236Z,101063.47
2023-02-18T00:58:32.669Z,101065.38
2023-02-18T01:00:59.665Z,101053.28
2023-02-18T01:03:26.956Z,101056.03
2023-02-18T01:05:53.901Z,101038.59
2023-02-18T01:08:21.908Z,101044.16
2023-02-18T01:10:53.601Z,101034.47
2023-02-18T01:13:21.019Z,101040.50
2023-02-18T01:15:48.103Z,101025.44
2023-02-18T01:18:15.279Z,101028.75
2023-02-18T01:20:43.775Z,101033.44
2023-02-18T01:23:11.777Z,101029.97
2023-02-18T01:25:39.132Z,101022.34
2023-02-18T01:28:09.467Z,101025.63
2023-02-18T01:30:36.399Z,101026.78
2023-02-18T01:33:04.643Z,101021.72
2023-02-18T01:35:31.638Z,101020.84
2023-02-18T01:37:58.569Z,101022.75
2023-02-18T01:40:30.005Z,101020.84
2023-02-18T01:42:57.302Z,101015.09
2023-02-18T01:45:39.112Z,101022.28
2023-02-18T01:48:13.432Z,101019.88
2023-02-18T01:50:45.191Z,101023.41
2023-02-18T01:53:16.931Z,101022.91
2023-02-18T01:55:44.932Z,101027.56
2023-02-18T01:58:13.348Z,101020.84
2023-02-18T02:00:40.599Z,101015.06
2023-02-18T02:03:07.529Z,101001.78
2023-02-18T02:05:34.889Z,101005.78
2023-02-18T02:08:02.981Z,100987.88
2023-02-18T02:10:46.435Z,100978.28
2023-02-18T02:13:57.669Z,100973.94
2023-02-18T02:16:43.321Z,100984.97
2023-02-18T02:19:31.148Z,100975.66
2023-02-18T02:22:13.153Z,100989.94
2023-02-18T02:24:54.491Z,100993.94
2023-02-18T02:27:40.018Z,101006.78
2023-02-18T02:30:31.684Z,100991.34
2023-02-18T02:33:04.781Z,100991.28
2023-02-18T02:35:59.479Z,100991.19
2023-02-18T02:38:40.199Z,100979.09
2023-02-18T02:41:28.749Z,100986.47
2023-02-18T02:44:02.029Z,100986.16
2023-02-18T02:46:40.645Z,100993.28
2023-02-18T02:49:32.140Z,100984.44
2023-02-18T02:52:15.217Z,100996.50
2023-02-18T02:54:42.127Z,100988.78
2023-02-18T02:57:12.304Z,100992.59
2023-02-18T02:59:55.316Z,100989.38
2023-02-18T03:02:48.975Z,100989.97
2023-02-18T03:05:30.777Z,100981.56
2023-02-18T03:08:31.887Z,100979.81
2023-02-18T03:11:05.389Z,100981.00
2023-02-18T03:27:54.731Z,100964.94
2023-02-18T03:30:48.913Z,100971.06
2023-02-18T03:33:20.448Z,100972.09
2023-02-18T03:35:48.703Z,100963.22
2023-02-18T03:38:23.270Z,100959.47
2023-02-18T03:40:50.549Z,100966.00
2023-02-18T03:43:18.055Z,100954.78
2023-02-18T03:45:45.079Z,100948.63
2023-02-18T03:48:12.086Z,100944.25
2023-02-18T03:50:39.009Z,100954.34
2023-02-18T03:53:05.816Z,100951.31
2023-02-18T03:55:32.739Z,100960.72
2023-02-18T03:57:59.631Z,100955.81
2023-02-18T04:00:26.566Z,100960.69
2023-02-18T04:02:53.438Z,100952.09
2023-02-18T04:05:20.869Z,100958.53
2023-02-18T04:07:48.074Z,100957.22
2023-02-18T04:10:15.011Z,100955.78
2023-02-18T04:12:41.886Z,100954.19
2023-02-18T04:15:09.513Z,100955.88
2023-02-18T04:17:36.417Z,100960.78
2023-02-18T04:20:04.823Z,100949.22
2023-02-18T04:22:31.795Z,100952.50
2023-02-18T04:25:00.623Z,100944.44
2023-02-18T04:27:27.550Z,100947.59
2023-02-18T04:29:54.634Z,100940.94
2023-02-18T04:32:21.563Z,100934.06
2023-02-18T04:34:48.425Z,100937.13
2023-02-18T04:37:15.276Z,100927.88
2023-02-18T04:39:42.250Z,100928.53
2023-02-18T04:42:10.494Z,100924.28
2023-02-18T04:44:37.898Z,100922.13
2023-02-18T04:47:06.410Z,100923.63
2023-02-18T04:49:33.854Z,100911.56
2023-02-18T04:52:00.975Z,100921.09
2023-02-18T04:54:27.974Z,100918.84
2023-02-18T04:56:55.103Z,100902.16
2023-02-18T04:59:21.932Z,100902.91
2023-02-18T05:01:49.053Z,100902.91
2023-02-18T05:04:17.549Z,100899.25
2023-02-18T05:06:44.862Z,100905.34
2023-02-18T05:09:12.435Z,100909.72
2023-02-18T05:11:39.472Z,100895.56
2023-02-18T05:14:06.627Z,100902.81
2023-02-18T05:16:33.687Z,100902.09
2023-02-18T05:19:00.774Z,100900.22
2023-02-18T05:21:27.609Z,100903.63
2023-02-18T05:23:54.522Z,100909.00
2023-02-18T05:26:21.562Z,100910.03
2023-02-18T05:28:48.528Z,100908.66
2023-02-18T05:31:15.692Z,100909.97
2023-02-18T05:33:42.653Z,100902.63
2023-02-18T05:36:09.679Z,100911.91
2023-02-18T05:38:36.708Z,100919.84
2023-02-18T05:41:03.716Z,100908.00
2023-02-18T05:43:31.099Z,100910.19
2023-02-18T05:45:57.899Z,100913.84
2023-02-18T05:48:24.792Z,100925.72
2023-02-18T05:50:54.671Z,100917.97
2023-02-18T05:53:21.903Z,100921.72
2023-02-18T05:55:48.746Z,100914.78
2023-02-18T05:58:17.166Z,100911.78
2023-02-18T06:00:44.090Z,100919.44
2023-02-18T06:03:11.121Z,100917.53
2023-02-18T06:05:38.003Z,100913.81
2023-02-18T06:08:05.181Z,100909.69
2023-02-18T06:10:31.910Z,100900.03
2023-02-18T06:13:00.278Z,100900.28
2023-02-18T06:15:27.164Z,100902.03
2023-02-18T06:17:54.224Z,100914.78
2023-02-18T06:20:21.046Z,100914.25
2023-02-18T06:22:47.957Z,100912.44
2023-02-18T06:25:14.955Z,100914.09
2023-02-18T06:27:41.862Z,100909.13
2023-02-18T06:30:09.392Z,100900.25
2023-02-18T06:32:36.319Z,100891.81
2023-02-18T06:35:03.729Z,100886.56
2023-02-18T06:37:30.578Z,100883.56
2023-02-18T06:39:57.506Z,100883.19
2023-02-18T06:42:24.399Z,100882.31
2023-02-18T06:44:51.219Z,100871.81
2023-02-18T06:47:18.139Z,100873.84
2023-02-18T06:49:44.985Z,100885.38
2023-02-18T06:52:11.849Z,100883.44
2023-02-18T06:54:38.678Z,100887.53
2023-02-18T06:57:05.566Z,100889.41
2023-02-18T06:59:32.366Z,100878.00
2023-02-18T07:01:59.248Z,100886.28
2023-02-18T07:04:26.158Z,100893.41
2023-02-18T07:06:52.899Z,100875.50
2023-02-18T07:09:19.777Z,100879.81
2023-02-18T07:11:46.659Z,100884.31
2023-02-18T07:14:13.534Z,100889.69
2023-02-18T07:16:40.541Z,100884.41
2023-02-18T07:19:07.450Z,100881.53
2023-02-18T07:21:34.348Z,100881.00
2023-02-18T07:24:01.195Z,100880.38
2023-02-18T07:26:28.112Z,100870.38
2023-02-18T07:28:55.037Z,100873.44
2023-02-18T07:31:22.072Z,100876.88
2023-02-18T07:33:49.042Z,100879.03
2023-02-18T07:36:15.917Z,100868.88
2023-02-18T07:38:43.079Z,100861.84
2023-02-18T07:41:22.485Z,100868.97
2023-02-18T07:43:49.899Z,100876.56
2023-02-18T07:46:16.927Z,100866.97
2023-02-18T07:48:43.844Z,100861.81
2023-02-18T07:51:12.199Z,100863.28
2023-02-18T07:53:39.800Z,100855.72
2023-02-18T07:56:07.864Z,100853.44
2023-02-18T07:58:37.352Z,100861.78
2023-02-18T08:01:09.832Z,100857.69
2023-02-18T08:03:37.421Z,100861.13
2023-02-18T08:06:05.903Z,100853.88
2023-02-18T08:08:35.787Z,100841.97
2023-02-18T08:11:13.425Z,100842.22
2023-02-18T08:13:47.071Z,100839.63
2023-02-18T08:16:14.672Z,100835.63
2023-02-18T08:18:41.667Z,100829.13
2023-02-18T08:21:08.805Z,100830.28
2023-02-18T08:23:35.755Z,100827.78
2023-02-18T08:26:02.645Z,100833.22
2023-02-18T08:28:31.003Z,100834.59
2023-02-18T08:30:59.092Z,100831.06
2023-02-18T08:33:26.356Z,100823.31
2023-02-18T08:35:55.048Z,100816.78
2023-02-18T08:38:23.318Z,100799.88
2023-02-18T08:40:50.966Z,100812.69
2023-02-18T08:43:18.545Z,100821.31
2023-02-18T08:45:45.764Z,100808.09
2023-02-18T08:48:19.776Z,100810.94
2023-02-18T08:50:48.275Z,100808.59
2023-02-18T08:53:15.793Z,100808.63
2023-02-18T08:55:42.792Z,100802.16
2023-02-18T08:58:10.216Z,100800.56
2023-02-18T09:00:38.480Z,100796.69
2023-02-18T09:03:05.731Z,100792.66
2023-02-18T09:05:32.567Z,100806.88
2023-02-18T09:07:59.639Z,100807.28
2023-02-18T09:10:26.638Z,100807.44
2023-02-18T09:12:53.421Z,100798.06
2023-02-18T09:15:20.471Z,100785.00
2023-02-18T09:17:47.359Z,100784.06
2023-02-18T09:20:14.511Z,100778.66
2023-02-18T09:22:41.344Z,100774.91
2023-02-18T09:25:08.551Z,100767.28
2023-02-18T09:27:35.581Z,100757.44
2023-02-18T09:30:02.660Z,100763.47
2023-02-18T09:32:34.776Z,100757.91
2023-02-18T09:35:03.196Z,100736.38
2023-02-18T09:37:30.620Z,100751.41
2023-02-18T09:39:57.422Z,100748.38
2023-02-18T09:42:31.559Z,100742.13
2023-02-18T09:45:00.801Z,100744.88
2023-02-18T09:47:33.690Z,100736.84
2023-02-18T09:50:19.340Z,100737.63
2023-02-18T09:52:46.544Z,100729.94
2023-02-18T09:55:28.654Z,100731.56
2023-02-18T09:58:06.874Z,100725.88
2023-02-18T10:00:37.187Z,100725.44
2023-02-18T10:03:17.821Z,100720.16
2023-02-18T10:05:59.886Z,100721.78
2023-02-18T10:08:29.529Z,100724.56
2023-02-18T10:10:56.733Z,100732.41
2023-02-18T10:13:34.677Z,100722.66
2023-02-18T10:16:02.711Z,100726.84
2023-02-18T10:18:43.343Z,100724.78
2023-02-18T10:21:14.261Z,100719.13
2023-02-18T10:24:06.710Z,100712.97
2023-02-18T10:26:37.349Z,100718.25
2023-02-18T10:29:10.732Z,100723.28
2023-02-18T10:31:43.640Z,100727.41
2023-02-18T10:34:17.930Z,100721.63
2023-02-18T10:36:56.137Z,100710.59
2023-02-18T10:39:35.395Z,100722.91
2023-02-18T10:42:20.863Z,100715.94
2023-02-18T10:45:03.721Z,100709.78
2023-02-18T10:47:43.176Z,100719.38
2023-02-18T10:50:14.008Z,100706.53
2023-02-18T10:52:44.402Z,100701.63
2023-02-18T10:55:18.542Z,100704.22
2023-02-18T10:57:55.710Z,100701.06
2023-02-18T11:00:27.848Z,100693.72
2023-02-18T11:03:17.982Z,100697.25
2023-02-18T11:05:47.357Z,100690.38
2023-02-18T11:08:22.495Z,100698.25
2023-02-18T11:10:50.583Z,100685.44
2023-02-18T11:13:29.287Z,100678.91
2023-02-18T11:16:00.589Z,100686.72
2023-02-18T11:18:38.291Z,100675.34
2023-02-18T11:21:21.661Z,100674.34
2023-02-18T11:23:53.414Z,100672.28
2023-02-18T11:26:34.006Z,100679.50
2023-02-18T11:29:07.840Z,100672.66
2023-02-18T11:31:45.215Z,100670.75
2023-02-18T11:34:20.884Z,100672.44
2023-02-18T11:36:49.332Z,100667.03
2023-02-18T11:39:28.366Z,100660.69
2023-02-18T11:41:57.096Z,100672.56
2023-02-18T11:44:33.417Z,100673.59
2023-02-18T11:47:02.319Z,100649.03
2023-02-18T11:49:31.350Z,100649.16
2023-02-18T11:52:26.750Z,100640.81
2023-02-18T11:55:07.482Z,100631.69
2023-02-18T11:57:38.425Z,100630.34
2023-02-18T12:00:20.499Z,100620.34
2023-02-18T12:02:47.928Z,100605.56
2023-02-18T12:05:23.684Z,100595.34
2023-02-18T12:07:58.630Z,100596.44
2023-02-18T12:10:27.948Z,100600.19
2023-02-18T12:13:17.366Z,100592.25
2023-02-18T12:15:52.547Z,100584.16
2023-02-18T12:18:50.493Z,100605.16
2023-02-18T12:21:41.373Z,100599.94
2023-02-18T12:24:39.652Z,100581.50
2023-02-18T12:27:28.303Z,100592.19
2023-02-18T12:30:07.323Z,100601.63
2023-02-18T12:32:43.270Z,100597.38
2023-02-18T12:35:37.798Z,100600.16
2023-02-18T12:38:19.830Z,100609.41
2023-02-18T12:40:58.573Z,100607.84
2023-02-18T12:43:50.207Z,100599.06
2023-02-18T12:46:29.255Z,100592.91
2023-02-18T12:49:31.601Z,100587.19
2023-02-18T12:52:13.613Z,100594.22
2023-02-18T12:54:49.888Z,100607.06
2023-02-18T12:57:31.757Z,100598.69
2023-02-18T13:00:26.540Z,100585.53
2023-02-18T13:02:53.267Z,100581.56
2023-02-18T13:05:29.123Z,100581.91
2023-02-18T13:08:12.805Z,100583.97
2023-02-18T13:11:21.677Z,100586.13
2023-02-18T13:14:00.651Z,100589.47
2023-02-18T13:16:31.229Z,100586.41
2023-02-18T13:19:14.697Z,100588.06
2023-02-18T13:21:44.693Z,100588.81
2023-02-18T13:24:15.003Z,100587.47
2023-02-18T13:26:46.249Z,100588.84
2023-02-18T13:29:41.332Z,100584.53
2023-02-18T13:32:23.386Z,100587.88
2023-02-18T13:35:14.341Z,100582.13
2023-02-18T13:38:03.066Z,100586.06
2023-02-18T13:40:32.286Z,100584.28
2023-02-18T13:43:19.531Z,100577.34
2023-02-18T13:46:05.486Z,100584.81
2023-02-18T13:48:36.269Z,100569.28
2023-02-18T13:51:06.112Z,100581.47
2023-02-18T13:53:37.466Z,100582.84
2023-02-18T13:56:35.047Z,100576.81
2023-02-18T13:59:26.342Z,100593.25
2023-02-18T14:01:53.566Z,100567.56
2023-02-18T14:04:42.374Z,100574.75
2023-02-18T14:07:39.392Z,100576.97
2023-02-18T14:10:21.076Z,100571.88
2023-02-18T14:12:57.056Z,100573.75
2023-02-18T14:15:23.882Z,100567.13
2023-02-18T14:18:02.989Z,100571.97
2023-02-18T14:20:52.693Z,100568.22
2023-02-18T14:23:19.658Z,100570.47
2023-02-18T14:26:14.142Z,100566.59
2023-02-18T14:28:55.440Z,100570.56
2023-02-18T14:31:50.276Z,100571.78
2023-02-18T14:34:38.489Z,100570.28
2023-02-18T14:37:23.590Z,100568.63
2023-02-18T14:40:21.588Z,100584.16
2023-02-18T14:43:12.862Z,100579.44
2023-02-18T14:46:04.817Z,100567.19
2023-02-18T14:48:54.362Z,100563.50
2023-02-18T14:51:24.661Z,100576.81
2023-02-18T14:53:52.151Z,100579.59
2023-02-18T14:56:21.442Z,100561.88
2023-02-18T14:58:56.856Z,100580.38
2023-02-18T15:01:25.365Z,100577.25
2023-02-18T15:03:54.162Z,100582.25
2023-02-18T15:06:38.371Z,100569.75
2023-02-18T15:09:18.389Z,100569.19
2023-02-18T15:11:50.910Z,100564.91
2023-02-18T15:29:56.574Z,100581.56
2023-02-18T15:32:29.200Z,100602.03
2023-02-18T15:35:14.045Z,100594.88
2023-02-18T15:37:45.352Z,100598.13
2023-02-18T15:40:19.753Z,100597.66
2023-02-18T15:42:50.351Z,100602.63
2023-02-18T15:45:23.013Z,100598.22
2023-02-18T15:47:55.723Z,100605.13
2023-02-18T15:50:28.634Z,100614.59
2023-02-18T15:52:59.922Z,100608.59
2023-02-18T15:55:40.707Z,100604.69
2023-02-18T15:58:31.352Z,100615.41
2023-02-18T16:01:04.621Z,100618.66
2023-02-18T16:03:40.791Z,100616.56
2023-02-18T16:06:18.468Z,100620.91
2023-02-18T16:09:26.407Z,100629.22
2023-02-18T16:11:59.647Z,100630.31
2023-02-18T16:14:37.259Z,100628.59
2023-02-18T16:17:15.121Z,100633.84
2023-02-18T16:20:08.033Z,100631.41
2023-02-18T16:22:44.463Z,100632.19
2023-02-18T16:25:14.659Z,100640.94
2023-02-18T16:27:47.574Z,100638.78
2023-02-18T16:30:26.241Z,100631.63
2023-02-18T16:32:54.922Z,100635.41
2023-02-18T16:35:23.443Z,100638.88
2023-02-18T16:37:50.339Z,100632.56
2023-02-18T16:40:40.628Z,100640.53
2023-02-18T16:43:15.518Z,100640.53
2023-02-18T16:45:50.690Z,100636.03
2023-02-18T16:48:43.186Z,100641.34
2023-02-18T16:51:11.970Z,100641.91
2023-02-18T16:53:40.061Z,100653.31
2023-02-18T16:56:14.364Z,100646.38
2023-02-18T16:58:41.237Z,100646.56
2023-02-18T17:01:21.064Z,100652.91
2023-02-18T17:03:51.081Z,100647.56
2023-02-18T17:06:18.100Z,100651.41
2023-02-18T17:08:45.174Z,100651.19
2023-02-18T17:11:33.856Z,100647.75
2023-02-18T17:14:05.028Z,100649.75
2023-02-18T17:16:32.131Z,100659.06
2023-02-18T17:18:59.053Z,100657.47
2023-02-18T17:21:26.155Z,100656.47
2023-02-18T17:23:53.180Z,100663.81
2023-02-18T17:26:28.486Z,100656.66
2023-02-18T17:28:57.804Z,100656.84
2023-02-18T17:31:28.797Z,100662.28
2023-02-18T17:33:58.798Z,100655.63
2023-02-18T17:36:25.764Z,100644.84
2023-02-18T17:38:53.116Z,100643.09
2023-02-18T17:41:20.023Z,100648.31
2023-02-18T17:43:47.017Z,100646.50
2023-02-18T17:46:16.185Z,100646.16
2023-02-18T17:48:44.309Z,100653.56
2023-02-18T17:51:31.456Z,100653.06
2023-02-18T17:53:58.370Z,100653.78
2023-02-18T17:56:25.293Z,100659.84
2023-02-18T17:58:52.721Z,100651.84
2023-02-18T18:01:21.294Z,100654.94
2023-02-18T18:03:48.253Z,100651.38
2023-02-18T18:06:20.599Z,100649.78
2023-02-18T18:08:48.381Z,100656.63
2023-02-18T18:11:21.229Z,100649.81
2023-02-18T18:13:48.461Z,100655.50
2023-02-18T18:16:17.824Z,100656.03
2023-02-18T18:18:44.912Z,100651.44
2023-02-18T18:21:33.349Z,100659.41
2023-02-18T18:24:00.851Z,100655.16
2023-02-18T18:26:28.013Z,100656.97
2023-02-18T18:28:54.962Z,100658.72
2023-02-18T18:31:22.620Z,100655.78
2023-02-18T18:33:53.017Z,100660.69
2023-02-18T18:36:21.364Z,100661.50
2023-02-18T18:38:48.614Z,100654.16
2023-02-18T18:41:18.875Z,100658.56
2023-02-18T18:43:46.666Z,100647.84
2023-02-18T18:46:13.894Z,100653.19
2023-02-18T18:48:40.930Z,100658.09
2023-02-18T18:51:07.963Z,100658.25
2023-02-18T18:53:35.729Z,100649.13
2023-02-18T18:56:05.845Z,100652.56
2023-02-18T18:58:33.331Z,100655.16
2023-02-18T19:01:02.649Z,100649.16
2023-02-18T19:03:30.906Z,100652.88
2023-02-18T19:05:58.146Z,100658.59
2023-02-18T19:08:25.469Z,100655.50
2023-02-18T19:10:54.882Z,100658.13
2023-02-18T19:13:25.044Z,100651.59
2023-02-18T19:16:19.669Z,100647.34
2023-02-18T19:18:47.631Z,100655.84
2023-02-18T19:21:15.650Z,100650.28
2023-02-18T19:23:42.540Z,100651.47
2023-02-18T19:26:09.649Z,100660.56
2023-02-18T19:28:36.853Z,100652.09
2023-02-18T19:31:08.427Z,100658.28
2023-02-18T19:33:35.846Z,100655.69
2023-02-18T19:36:10.535Z,100652.91
2023-02-18T19:38:37.984Z,100648.53
2023-02-18T19:41:12.910Z,100646.91
2023-02-18T19:43:40.996Z,100643.81
2023-02-18T19:46:09.828Z,100654.38
2023-02-18T19:48:37.194Z,100640.38
2023-02-18T19:51:05.339Z,100643.28
2023-02-18T19:53:32.330Z,100649.47
2023-02-18T19:56:02.452Z,100646.53
2023-02-18T19:58:29.713Z,100643.09
2023-02-18T20:00:56.732Z,100654.78
2023-02-18T20:03:23.672Z,100652.38
2023-02-18T20:05:50.561Z,100652.22
2023-02-18T20:08:17.380Z,100654.69
2023-02-18T20:10:44.272Z,100658.94
2023-02-18T20:13:12.153Z,100654.34
2023-02-18T20:15:40.474Z,100656.47
2023-02-18T20:18:07.790Z,100655.16
2023-02-18T20:20:34.665Z,100661.56
2023-02-18T20:23:01.556Z,100656.81
2023-02-18T20:25:28.620Z,100651.75
2023-02-18T20:28:01.076Z,100656.03
2023-02-18T20:30:28.695Z,100653.84
2023-02-18T20:32:55.587Z,100650.13
2023-02-18T20:35:22.587Z,100652.91
2023-02-18T20:37:49.446Z,100660.38
2023-02-18T20:40:16.547Z,100655.66
2023-02-18T20:42:43.467Z,100651.75
2023-02-18T20:45:10.429Z,100646.72
2023-02-18T20:47:37.277Z,100645.09
2023-02-18T20:50:04.364Z,100645.56
2023-02-18T20:52:33.562Z,100649.13
2023-02-18T20:55:01.446Z,100649.97
2023-02-18T20:57:28.386Z,100635.84
2023-02-18T20:59:55.303Z,100641.53
2023-02-18T21:02:22.157Z,100634.22
2023-02-18T21:04:49.146Z,100635.56
2023-02-18T21:07:16.053Z,100636.03
2023-02-18T21:09:42.898Z,100633.41
2023-02-18T21:12:09.946Z,100634.06
2023-02-18T21:14:36.789Z,100640.72
2023-02-18T21:17:03.803Z,100637.47
2023-02-18T21:19:30.887Z,100641.38
2023-02-18T21:21:57.738Z,100643.81
2023-02-18T21:24:24.663Z,100621.22
2023-02-18T21:26:51.529Z,100623.81
2023-02-18T21:29:18.397Z,100619.72
2023-02-18T21:31:45.416Z,100623.31
2023-02-18T21:34:15.076Z,100620.88
2023-02-18T21:36:43.331Z,100624.78
2023-02-18T21:39:10.935Z,100617.31
2023-02-18T21:41:40.478Z,100631.13
2023-02-18T21:44:08.500Z,100626.41
2023-02-18T21:46:36.762Z,100619.25
2023-02-18T21:49:09.759Z,100624.13
2023-02-18T21:52:00.726Z,100609.19
2023-02-18T21:54:27.608Z,100607.56
2023-02-18T21:56:56.149Z,100605.63
2023-02-18T21:59:24.974Z,100605.47
2023-02-18T22:01:51.921Z,100598.81
2023-02-18T22:04:18.925Z,100602.41
2023-02-18T22:06:46.360Z,100597.03
2023-02-18T22:09:13.637Z,100603.22
2023-02-18T22:11:42.752Z,100600.78
2023-02-18T22:14:13.863Z,100593.31
2023-02-18T22:16:41.697Z,100600.63
2023-02-18T22:19:10.375Z,100600.63
2023-02-18T22:21:37.271Z,100593.47
2023-02-18T22:24:05.481Z,100597.72
2023-02-18T22:26:32.411Z,100599.81
2023-02-18T22:29:00.154Z,100586.31
2023-02-18T22:31:30.192Z,100588.59
2023-02-18T22:33:58.806Z,100591.22
2023-02-18T22:36:26.808Z,100592.66
2023-02-18T22:38:54.153Z,100596.75
2023-02-18T22:41:23.693Z,100594.13
2023-02-18T22:43:57.517Z,100588.78
2023-02-18T22:46:25.111Z,100586.00
2023-02-18T22:48:53.038Z,100579.19
2023-02-18T22:51:28.178Z,100582.94
2023-02-18T22:53:56.482Z,100582.94
2023-02-18T22:56:25.414Z,100579.00
2023-02-18T22:58:54.584Z,100576.22
2023-02-18T23:01:22.479Z,100580.47
2023-02-18T23:03:51.014Z,100583.69
2023-02-18T23:06:19.857Z,100582.56
2023-02-18T23:08:47.059Z,100579.13
2023-02-18T23:11:17.517Z,100570.50
2023-02-18T23:13:45.174Z,100578.63
2023-02-18T23:16:14.115Z,100573.78
2023-02-18T23:18:41.055Z,100582.09
2023-02-18T23:21:23.475Z,100578.34
2023-02-18T23:23:53.658Z,100582.91
2023-02-18T23:26:22.176Z,100592.50
2023-02-18T23:28:50.786Z,100593.84
2023-02-18T23:31:26.488Z,100598.19
2023-02-18T23:33:56.468Z,100607.66
2023-02-18T23:36:25.994Z,100597.22
2023-02-18T23:38:55.423Z,100591.88
2023-02-18T23:41:23.091Z,100590.25
2023-02-18T23:43:50.264Z,100592.88
2023-02-18T23:46:19.914Z,100596.59
2023-02-18T23:48:46.956Z,100586.38
2023-02-18T23:51:16.498Z,100586.38
2023-02-18T23:53:43.824Z,100587.34
2023-02-18T23:56:17.430Z,100591.09
2023-02-18T23:58:47.742Z,100587.50
